sensor_id;sensor_type;location;lat;lon;timestamp;P1;P2;P0
33948;PMS7003;20229;49.856;19.030;2023-01-26T00:01:22;46;34;21
33948;PMS7003;20229;49.856;19.030;2023-01-26T00:06:41;32;25;16
33948;PMS7003;20229;49.856;19.030;2023-01-26T00:11:45;26;22;12
33948;PMS7003;20229;49.856;19.030;2023-01-26T00:17:07;24;17;9
33948;PMS7003;20229;49.856;19.030;2023-01-26T00:22:10;21;17;10
33948;PMS7003;20229;49.856;19.030;2023-01-26T00:27:33;23;21;13
33948;PMS7003;20229;49.856;19.030;2023-01-26T00:32:36;24;17;10
33948;PMS7003;20229;49.856;19.030;2023-01-26T00:37:59;26;22;15
33948;PMS7003;20229;49.856;19.030;2023-01-26T00:43:02;20;16;9
33948;PMS7003;20229;49.856;19.030;2023-01-26T00:48:24;24;19;11
33948;PMS7003;20229;49.856;19.030;2023-01-26T00:53:28;21;18;10
33948;PMS7003;20229;49.856;19.030;2023-01-26T00:58:50;19;16;8
33948;PMS7003;20229;49.856;19.030;2023-01-26T01:03:53;24;21;11
33948;PMS7003;20229;49.856;19.030;2023-01-26T01:09:16;26;21;12
33948;PMS7003;20229;49.856;19.030;2023-01-26T01:14:20;26;21;13
33948;PMS7003;20229;49.856;19.030;2023-01-26T01:19:41;23;17;11
33948;PMS7003;20229;49.856;19.030;2023-01-26T01:24:45;24;18;13
33948;PMS7003;20229;49.856;19.030;2023-01-26T01:30:07;27;20;12
33948;PMS7003;20229;49.856;19.030;2023-01-26T01:35:14;13;8;5
33948;PMS7003;20229;49.856;19.030;2023-01-26T01:40:33;22;18;10
33948;PMS7003;20229;49.856;19.030;2023-01-26T01:51:00;24;20;12
33948;PMS7003;20229;49.856;19.030;2023-01-26T01:56:09;25;21;13
33948;PMS7003;20229;49.856;19.030;2023-01-26T02:01:24;25;19;12
33948;PMS7003;20229;49.856;19.030;2023-01-26T02:11:50;26;21;15
33948;PMS7003;20229;49.856;19.030;2023-01-26T02:16:54;33;25;15
33948;PMS7003;20229;49.856;19.030;2023-01-26T02:22:20;23;21;13
33948;PMS7003;20229;49.856;19.030;2023-01-26T02:27:30;25;18;10
33948;PMS7003;20229;49.856;19.030;2023-01-26T02:32:42;26;24;15
33948;PMS7003;20229;49.856;19.030;2023-01-26T02:37:45;33;23;12
33948;PMS7003;20229;49.856;19.030;2023-01-26T02:43:08;29;22;13
33948;PMS7003;20229;49.856;19.030;2023-01-26T02:48:11;30;22;13
33948;PMS7003;20229;49.856;19.030;2023-01-26T02:53:33;28;21;12
33948;PMS7003;20229;49.856;19.030;2023-01-26T02:58:37;28;22;14
33948;PMS7003;20229;49.856;19.030;2023-01-26T03:03:59;30;23;12
33948;PMS7003;20229;49.856;19.030;2023-01-26T03:09:02;28;21;13
33948;PMS7003;20229;49.856;19.030;2023-01-26T03:14:25;25;19;10
33948;PMS7003;20229;49.856;19.030;2023-01-26T03:19:28;18;15;8
33948;PMS7003;20229;49.856;19.030;2023-01-26T03:24:51;32;25;16
33948;PMS7003;20229;49.856;19.030;2023-01-26T03:30:06;31;23;12
33948;PMS7003;20229;49.856;19.030;2023-01-26T03:35:16;23;20;11
33948;PMS7003;20229;49.856;19.030;2023-01-26T03:40:24;34;25;14
33948;PMS7003;20229;49.856;19.030;2023-01-26T03:45:42;26;21;12
33948;PMS7003;20229;49.856;19.030;2023-01-26T03:50:58;23;20;12
33948;PMS7003;20229;49.856;19.030;2023-01-26T03:56:13;21;12;4
33948;PMS7003;20229;49.856;19.030;2023-01-26T04:01:28;23;21;12
33948;PMS7003;20229;49.856;19.030;2023-01-26T04:06:35;22;16;7
33948;PMS7003;20229;49.856;19.030;2023-01-26T04:11:52;28;22;13
33948;PMS7003;20229;49.856;19.030;2023-01-26T04:17:00;26;19;10
33948;PMS7003;20229;49.856;19.030;2023-01-26T04:22:17;21;12;4
33948;PMS7003;20229;49.856;19.030;2023-01-26T04:27:25;25;20;10
33948;PMS7003;20229;49.856;19.030;2023-01-26T04:32:29;31;20;12
33948;PMS7003;20229;49.856;19.030;2023-01-26T04:37:51;29;20;10
33948;PMS7003;20229;49.856;19.030;2023-01-26T04:42:54;25;21;12
33948;PMS7003;20229;49.856;19.030;2023-01-26T04:48:17;27;23;14
33948;PMS7003;20229;49.856;19.030;2023-01-26T04:53:20;23;20;8
33948;PMS7003;20229;49.856;19.030;2023-01-26T04:58:43;25;19;10
33948;PMS7003;20229;49.856;19.030;2023-01-26T05:03:46;18;13;9
33948;PMS7003;20229;49.856;19.030;2023-01-26T05:09:09;22;17;8
33948;PMS7003;20229;49.856;19.030;2023-01-26T05:14:12;28;22;12
33948;PMS7003;20229;49.856;19.030;2023-01-26T05:19:34;20;18;9
33948;PMS7003;20229;49.856;19.030;2023-01-26T05:24:38;29;22;11
33948;PMS7003;20229;49.856;19.030;2023-01-26T05:30:00;22;18;8
33948;PMS7003;20229;49.856;19.030;2023-01-26T05:35:05;19;16;8
33948;PMS7003;20229;49.856;19.030;2023-01-26T05:40:26;21;19;10
33948;PMS7003;20229;49.856;19.030;2023-01-26T05:45:29;25;21;13
33948;PMS7003;20229;49.856;19.030;2023-01-26T05:50:53;25;18;11
33948;PMS7003;20229;49.856;19.030;2023-01-26T05:55:58;22;18;10
33948;PMS7003;20229;49.856;19.030;2023-01-26T06:01:17;28;21;12
33948;PMS7003;20229;49.856;19.030;2023-01-26T06:06:21;27;19;11
33948;PMS7003;20229;49.856;19.030;2023-01-26T06:11:43;25;20;11
33948;PMS7003;20229;49.856;19.030;2023-01-26T06:16:46;30;22;12
33948;PMS7003;20229;49.856;19.030;2023-01-26T06:22:09;23;18;12
33948;PMS7003;20229;49.856;19.030;2023-01-26T06:27:14;21;19;11
33948;PMS7003;20229;49.856;19.030;2023-01-26T06:32:35;31;23;14
33948;PMS7003;20229;49.856;19.030;2023-01-26T06:37:39;30;22;11
33948;PMS7003;20229;49.856;19.030;2023-01-26T06:43:00;31;23;12
33948;PMS7003;20229;49.856;19.030;2023-01-26T06:48:04;28;23;12
33948;PMS7003;20229;49.856;19.030;2023-01-26T06:58:39;36;29;18
33948;PMS7003;20229;49.856;19.030;2023-01-26T07:03:53;37;29;16
33948;PMS7003;20229;49.856;19.030;2023-01-26T07:08:57;36;29;19
33948;PMS7003;20229;49.856;19.030;2023-01-26T07:14:18;28;26;13
33948;PMS7003;20229;49.856;19.030;2023-01-26T07:19:21;31;24;14
33948;PMS7003;20229;49.856;19.030;2023-01-26T07:24:44;28;23;10
33948;PMS7003;20229;49.856;19.030;2023-01-26T07:29:47;31;25;14
33948;PMS7003;20229;49.856;19.030;2023-01-26T07:35:10;33;28;16
33948;PMS7003;20229;49.856;19.030;2023-01-26T07:40:13;38;29;17
33948;PMS7003;20229;49.856;19.030;2023-01-26T07:45:36;34;27;17
33948;PMS7003;20229;49.856;19.030;2023-01-26T07:50:39;33;24;13
33948;PMS7003;20229;49.856;19.030;2023-01-26T07:56:05;42;31;17
33948;PMS7003;20229;49.856;19.030;2023-01-26T08:01:13;42;32;20
33948;PMS7003;20229;49.856;19.030;2023-01-26T08:06:27;43;34;21
33948;PMS7003;20229;49.856;19.030;2023-01-26T08:11:30;42;30;18
33948;PMS7003;20229;49.856;19.030;2023-01-26T08:16:53;43;34;21
33948;PMS7003;20229;49.856;19.030;2023-01-26T08:21:56;43;33;21
33948;PMS7003;20229;49.856;19.030;2023-01-26T08:27:19;46;35;21
33948;PMS7003;20229;49.856;19.030;2023-01-26T08:32:23;37;28;19
33948;PMS7003;20229;49.856;19.030;2023-01-26T08:37:45;40;32;21
33948;PMS7003;20229;49.856;19.030;2023-01-26T08:42:48;45;31;19
33948;PMS7003;20229;49.856;19.030;2023-01-26T08:48:10;40;34;21
33948;PMS7003;20229;49.856;19.030;2023-01-26T08:53:14;38;30;20
33948;PMS7003;20229;49.856;19.030;2023-01-26T08:58:36;44;34;22
33948;PMS7003;20229;49.856;19.030;2023-01-26T09:03:40;40;30;19
33948;PMS7003;20229;49.856;19.030;2023-01-26T09:09:02;40;32;20
33948;PMS7003;20229;49.856;19.030;2023-01-26T09:14:05;39;30;19
33948;PMS7003;20229;49.856;19.030;2023-01-26T09:19:28;40;32;21
33948;PMS7003;20229;49.856;19.030;2023-01-26T09:24:31;38;32;20
33948;PMS7003;20229;49.856;19.030;2023-01-26T09:29:54;45;33;21
33948;PMS7003;20229;49.856;19.030;2023-01-26T09:34:58;42;33;22
33948;PMS7003;20229;49.856;19.030;2023-01-26T09:40:25;44;34;23
33948;PMS7003;20229;49.856;19.030;2023-01-26T09:45:39;47;37;23
33948;PMS7003;20229;49.856;19.030;2023-01-26T09:50:54;43;32;20
33948;PMS7003;20229;49.856;19.030;2023-01-26T09:56:02;42;31;19
33948;PMS7003;20229;49.856;19.030;2023-01-26T10:01:23;42;32;20
33948;PMS7003;20229;49.856;19.030;2023-01-26T10:06:29;48;38;23
33948;PMS7003;20229;49.856;19.030;2023-01-26T10:11:46;46;36;23
33948;PMS7003;20229;49.856;19.030;2023-01-26T10:16:48;42;32;21
33948;PMS7003;20229;49.856;19.030;2023-01-26T10:22:04;43;35;22
33948;PMS7003;20229;49.856;19.030;2023-01-26T10:27:15;46;36;22
33948;PMS7003;20229;49.856;19.030;2023-01-26T10:32:28;47;35;24
33948;PMS7003;20229;49.856;19.030;2023-01-26T10:37:34;34;29;21
33948;PMS7003;20229;49.856;19.030;2023-01-26T10:42:55;46;34;23
33948;PMS7003;20229;49.856;19.030;2023-01-26T10:48:19;42;32;20
33948;PMS7003;20229;49.856;19.030;2023-01-26T10:53:24;48;33;23
33948;PMS7003;20229;49.856;19.030;2023-01-26T11:14:17;46;37;22
33948;PMS7003;20229;49.856;19.030;2023-01-26T11:19:26;44;32;21
33948;PMS7003;20229;49.856;19.030;2023-01-26T11:40:27;42;32;21
33948;PMS7003;20229;49.856;19.030;2023-01-26T11:50:54;51;38;25
33948;PMS7003;20229;49.856;19.030;2023-01-26T11:56:18;43;33;21
33948;PMS7003;20229;49.856;19.030;2023-01-26T12:06:46;34;29;19
33948;PMS7003;20229;49.856;19.030;2023-01-26T12:11:58;38;30;21
33948;PMS7003;20229;49.856;19.030;2023-01-26T12:17:15;41;33;22
33948;PMS7003;20229;49.856;19.030;2023-01-26T12:27:43;44;34;21
33948;PMS7003;20229;49.856;19.030;2023-01-26T12:32:54;48;36;22
33948;PMS7003;20229;49.856;19.030;2023-01-26T12:38:02;40;33;23
33948;PMS7003;20229;49.856;19.030;2023-01-26T12:58:59;50;37;26
33948;PMS7003;20229;49.856;19.030;2023-01-26T13:04:14;49;38;27
33948;PMS7003;20229;49.856;19.030;2023-01-26T13:09:24;39;34;23
33948;PMS7003;20229;49.856;19.030;2023-01-26T13:14:31;45;36;25
33948;PMS7003;20229;49.856;19.030;2023-01-26T13:24:55;47;37;26
33948;PMS7003;20229;49.856;19.030;2023-01-26T13:30:00;39;33;24
33948;PMS7003;20229;49.856;19.030;2023-01-26T13:35:06;53;42;30
33948;PMS7003;20229;49.856;19.030;2023-01-26T13:40:18;47;38;25
33948;PMS7003;20229;49.856;19.030;2023-01-26T13:45:27;50;39;26
33948;PMS7003;20229;49.856;19.030;2023-01-26T13:50:39;41;33;21
33948;PMS7003;20229;49.856;19.030;2023-01-26T13:55:43;48;38;25
33948;PMS7003;20229;49.856;19.030;2023-01-26T14:01:06;46;34;22
33948;PMS7003;20229;49.856;19.030;2023-01-26T14:06:18;48;37;24
33948;PMS7003;20229;49.856;19.030;2023-01-26T14:11:31;48;36;24
33948;PMS7003;20229;49.856;19.030;2023-01-26T14:16:36;40;35;23
33948;PMS7003;20229;49.856;19.030;2023-01-26T14:21:57;47;36;24
33948;PMS7003;20229;49.856;19.030;2023-01-26T14:27:04;47;38;25
33948;PMS7003;20229;49.856;19.030;2023-01-26T14:32:22;51;41;27
33948;PMS7003;20229;49.856;19.030;2023-01-26T14:37:31;56;43;29
33948;PMS7003;20229;49.856;19.030;2023-01-26T14:42:48;53;41;27
33948;PMS7003;20229;49.856;19.030;2023-01-26T14:47:55;61;44;29
33948;PMS7003;20229;49.856;19.030;2023-01-26T14:53:18;63;47;30
33948;PMS7003;20229;49.856;19.030;2023-01-26T14:58:26;51;37;22
33948;PMS7003;20229;49.856;19.030;2023-01-26T15:03:40;50;39;25
33948;PMS7003;20229;49.856;19.030;2023-01-26T15:14:17;48;35;23
33948;PMS7003;20229;49.856;19.030;2023-01-26T15:19:24;45;33;22
33948;PMS7003;20229;49.856;19.030;2023-01-26T15:24:32;47;37;24
33948;PMS7003;20229;49.856;19.030;2023-01-26T15:29:35;48;38;25
33948;PMS7003;20229;49.856;19.030;2023-01-26T15:40:09;45;36;24
33948;PMS7003;20229;49.856;19.030;2023-01-26T15:45:24;44;35;22
33948;PMS7003;20229;49.856;19.030;2023-01-26T15:50:29;51;40;25
33948;PMS7003;20229;49.856;19.030;2023-01-26T15:55:50;48;38;24
33948;PMS7003;20229;49.856;19.030;2023-01-26T16:00:56;48;38;25
33948;PMS7003;20229;49.856;19.030;2023-01-26T16:11:28;56;43;27
33948;PMS7003;20229;49.856;19.030;2023-01-26T16:16:41;51;39;25
33948;PMS7003;20229;49.856;19.030;2023-01-26T16:21:45;56;43;27
33948;PMS7003;20229;49.856;19.030;2023-01-26T16:27:08;53;39;26
33948;PMS7003;20229;49.856;19.030;2023-01-26T16:37:33;55;44;28
33948;PMS7003;20229;49.856;19.030;2023-01-26T16:42:37;58;43;26
33948;PMS7003;20229;49.856;19.030;2023-01-26T16:47:59;59;43;26
33948;PMS7003;20229;49.856;19.030;2023-01-26T16:53:05;63;48;30
33948;PMS7003;20229;49.856;19.030;2023-01-26T16:58:25;68;52;32
33948;PMS7003;20229;49.856;19.030;2023-01-26T17:03:29;54;41;29
33948;PMS7003;20229;49.856;19.030;2023-01-26T17:08:51;43;25;4
33948;PMS7003;20229;49.856;19.030;2023-01-26T17:13:55;76;60;37
33948;PMS7003;20229;49.856;19.030;2023-01-26T17:19:17;71;55;35
33948;PMS7003;20229;49.856;19.030;2023-01-26T17:24:21;73;58;35
33948;PMS7003;20229;49.856;19.030;2023-01-26T17:29:43;69;49;33
33948;PMS7003;20229;49.856;19.030;2023-01-26T17:34:51;71;52;33
33948;PMS7003;20229;49.856;19.030;2023-01-26T17:40:10;65;48;31
33948;PMS7003;20229;49.856;19.030;2023-01-26T17:45:13;70;54;33
33948;PMS7003;20229;49.856;19.030;2023-01-26T17:50:35;71;54;33
33948;PMS7003;20229;49.856;19.030;2023-01-26T17:55:39;70;54;32
33948;PMS7003;20229;49.856;19.030;2023-01-26T18:01:02;70;50;31
33948;PMS7003;20229;49.856;19.030;2023-01-26T18:06:06;72;54;33
33948;PMS7003;20229;49.856;19.030;2023-01-26T18:11:27;75;58;37
33948;PMS7003;20229;49.856;19.030;2023-01-26T18:16:31;70;52;30
33948;PMS7003;20229;49.856;19.030;2023-01-26T18:21:53;81;68;44
33948;PMS7003;20229;49.856;19.030;2023-01-26T18:26:57;87;68;39
33948;PMS7003;20229;49.856;19.030;2023-01-26T18:32:19;89;66;39
33948;PMS7003;20229;49.856;19.030;2023-01-26T18:37:23;75;59;34
33948;PMS7003;20229;49.856;19.030;2023-01-26T18:42:46;83;70;42
33948;PMS7003;20229;49.856;19.030;2023-01-26T18:48:05;73;59;39
33948;PMS7003;20229;49.856;19.030;2023-01-26T18:53:12;79;62;39
33948;PMS7003;20229;49.856;19.030;2023-01-26T18:58:15;79;61;37
33948;PMS7003;20229;49.856;19.030;2023-01-26T19:03:38;76;62;38
33948;PMS7003;20229;49.856;19.030;2023-01-26T19:08:56;75;57;34
33948;PMS7003;20229;49.856;19.030;2023-01-26T19:14:08;69;55;36
33948;PMS7003;20229;49.856;19.030;2023-01-26T19:19:13;71;54;36
33948;PMS7003;20229;49.856;19.030;2023-01-26T19:24:30;73;60;35
33948;PMS7003;20229;49.856;19.030;2023-01-26T19:29:33;81;62;40
33948;PMS7003;20229;49.856;19.030;2023-01-26T19:34:56;74;59;34
33948;PMS7003;20229;49.856;19.030;2023-01-26T19:39:59;79;66;44
33948;PMS7003;20229;49.856;19.030;2023-01-26T19:45:22;74;58;36
33948;PMS7003;20229;49.856;19.030;2023-01-26T19:50:26;84;67;40
33948;PMS7003;20229;49.856;19.030;2023-01-26T19:55:49;79;63;33
33948;PMS7003;20229;49.856;19.030;2023-01-26T20:06:15;67;52;33
33948;PMS7003;20229;49.856;19.030;2023-01-26T20:11:19;71;53;33
33948;PMS7003;20229;49.856;19.030;2023-01-26T20:16:41;77;63;38
33948;PMS7003;20229;49.856;19.030;2023-01-26T20:21:44;69;54;31
33948;PMS7003;20229;49.856;19.030;2023-01-26T20:27:07;66;55;36
33948;PMS7003;20229;49.856;19.030;2023-01-26T20:32:11;80;61;37
33948;PMS7003;20229;49.856;19.030;2023-01-26T20:37:36;76;58;31
33948;PMS7003;20229;49.856;19.030;2023-01-26T20:43:07;92;75;46
33948;PMS7003;20229;49.856;19.030;2023-01-26T20:48:34;94;79;47
33948;PMS7003;20229;49.856;19.030;2023-01-26T20:53:37;107;86;52
33948;PMS7003;20229;49.856;19.030;2023-01-26T20:58:59;103;83;51
33948;PMS7003;20229;49.856;19.030;2023-01-26T21:04:03;93;77;51
33948;PMS7003;20229;49.856;19.030;2023-01-26T21:09:26;96;76;46
33948;PMS7003;20229;49.856;19.030;2023-01-26T21:14:29;99;80;48
33948;PMS7003;20229;49.856;19.030;2023-01-26T21:19:52;98;79;48
33948;PMS7003;20229;49.856;19.030;2023-01-26T21:24:55;92;73;48
33948;PMS7003;20229;49.856;19.030;2023-01-26T21:30:18;90;73;43
33948;PMS7003;20229;49.856;19.030;2023-01-26T21:35:21;84;64;36
33948;PMS7003;20229;49.856;19.030;2023-01-26T21:40:44;75;61;38
33948;PMS7003;20229;49.856;19.030;2023-01-26T21:45:47;78;64;39
33948;PMS7003;20229;49.856;19.030;2023-01-26T21:51:10;84;70;44
33948;PMS7003;20229;49.856;19.030;2023-01-26T21:56:26;76;60;38
33948;PMS7003;20229;49.856;19.030;2023-01-26T22:01:38;80;64;40
33948;PMS7003;20229;49.856;19.030;2023-01-26T22:06:44;73;57;35
33948;PMS7003;20229;49.856;19.030;2023-01-26T22:12:02;76;61;38
33948;PMS7003;20229;49.856;19.030;2023-01-26T22:17:06;75;58;37
33948;PMS7003;20229;49.856;19.030;2023-01-26T22:22:28;70;53;32
33948;PMS7003;20229;49.856;19.030;2023-01-26T22:27:32;74;57;36
33948;PMS7003;20229;49.856;19.030;2023-01-26T22:32:54;67;51;33
33948;PMS7003;20229;49.856;19.030;2023-01-26T22:37:58;58;42;25
33948;PMS7003;20229;49.856;19.030;2023-01-26T22:43:20;64;50;31
33948;PMS7003;20229;49.856;19.030;2023-01-26T22:48:24;69;51;30
33948;PMS7003;20229;49.856;19.030;2023-01-26T22:53:47;70;52;32
33948;PMS7003;20229;49.856;19.030;2023-01-26T22:58:52;67;48;31
33948;PMS7003;20229;49.856;19.030;2023-01-26T23:04:12;66;50;31
33948;PMS7003;20229;49.856;19.030;2023-01-26T23:14:47;67;51;31
33948;PMS7003;20229;49.856;19.030;2023-01-26T23:19:51;65;47;30
33948;PMS7003;20229;49.856;19.030;2023-01-26T23:25:04;61;45;27
33948;PMS7003;20229;49.856;19.030;2023-01-26T23:30:20;61;46;29
33948;PMS7003;20229;49.856;19.030;2023-01-26T23:35:30;55;41;25
33948;PMS7003;20229;49.856;19.030;2023-01-26T23:40:34;55;42;26
33948;PMS7003;20229;49.856;19.030;2023-01-26T23:45:56;52;39;25
33948;PMS7003;20229;49.856;19.030;2023-01-26T23:51:00;62;46;28
33948;PMS7003;20229;49.856;19.030;2023-01-26T23:56:22;60;43;26
